Time;durP1;ratioP1;P1;durP2;ratioP2;P2;SDS_P1;SDS_P2;PMS_P1;PMS_P2;Temp;Humidity;BMP_temperature;BMP_pressure;BME280_temperature;BME280_humidity;BME280_pressure;Samples;Min_cycle;Max_cycle;Signal;HPM_P1;HPM_P2
2022/03/01 00:02:00;;;;;;;12.87;6.37;;;1.70;99.90;;;;;;4962083;28;20278;-76
2022/03/01 00:04:25;;;;;;;10.70;6.47;;;1.60;99.90;;;;;;4961864;28;20234;-77
2022/03/01 00:06:51;;;;;;;12.40;6.27;;;1.60;99.90;;;;;;4961885;28;20210;-77
2022/03/01 00:09:17;;;;;;;10.10;5.73;;;1.60;99.90;;;;;;4961779;28;20204;-77
2022/03/01 00:11:42;;;;;;;11.33;6.63;;;1.50;99.90;;;;;;4962076;28;20565;-77
2022/03/01 00:14:08;;;;;;;12.97;6.40;;;1.50;99.90;;;;;;4961686;28;20187;-77
2022/03/01 00:16:35;;;;;;;11.53;6.27;;;1.50;99.90;;;;;;4977854;28;20215;-77
2022/03/01 00:19:01;;;;;;;11.03;6.63;;;1.50;99.90;;;;;;4970372;28;20228;-77
2022/03/01 00:21:30;;;;;;;10.83;5.93;;;1.50;99.90;;;;;;4980895;28;20273;-77
2022/03/01 00:23:57;;;;;;;11.53;6.30;;;1.50;99.90;;;;;;4996970;28;20301;-77
2022/03/01 00:26:22;;;;;;;11.90;5.97;;;1.50;99.90;;;;;;4997337;28;20206;-77
2022/03/01 00:28:48;;;;;;;13.00;7.00;;;1.40;99.90;;;;;;4964787;28;20360;-77
2022/03/01 00:31:14;;;;;;;11.47;6.23;;;1.40;99.90;;;;;;4964704;28;20210;-77
2022/03/01 00:33:40;;;;;;;11.83;6.40;;;1.40;99.90;;;;;;4996820;28;20179;-77
2022/03/01 00:36:06;;;;;;;9.77;6.27;;;1.40;99.90;;;;;;4980634;28;20274;-77
2022/03/01 00:38:31;;;;;;;10.90;6.30;;;1.40;99.90;;;;;;4980853;28;20594;-77
2022/03/01 00:40:57;;;;;;;11.40;6.20;;;1.40;99.90;;;;;;4996473;28;20179;-77
2022/03/01 00:43:23;;;;;;;11.83;6.33;;;1.30;99.90;;;;;;4964353;28;20191;-77
2022/03/01 00:45:53;;;;;;;11.17;6.13;;;1.30;99.90;;;;;;4980566;28;20184;-77
2022/03/01 00:48:20;;;;;;;10.37;5.87;;;1.30;99.90;;;;;;4996701;28;20276;-77
2022/03/01 00:50:45;;;;;;;9.83;5.73;;;1.20;99.90;;;;;;4996667;28;20179;-77
2022/03/01 00:53:11;;;;;;;14.53;6.53;;;1.20;99.90;;;;;;4996653;28;20179;-76
2022/03/01 00:55:37;;;;;;;10.90;6.47;;;1.10;99.90;;;;;;4996463;28;20603;-77
2022/03/01 00:58:03;;;;;;;11.47;5.90;;;1.10;99.90;;;;;;4980411;28;20234;-77
2022/03/01 01:00:30;;;;;;;10.73;6.17;;;1.10;99.90;;;;;;4996382;28;20175;-77
2022/03/01 01:02:56;;;;;;;11.47;6.07;;;1.00;99.90;;;;;;4980186;28;20194;-76
2022/03/01 01:05:22;;;;;;;10.27;6.10;;;1.00;99.90;;;;;;4996123;28;20203;-76
2022/03/01 01:07:49;;;;;;;10.47;5.90;;;0.90;99.90;;;;;;4996628;28;20175;-77
2022/03/01 01:10:15;;;;;;;13.40;6.30;;;0.90;99.90;;;;;;4996315;28;20199;-77
2022/03/01 01:12:41;;;;;;;9.47;5.70;;;0.80;99.90;;;;;;4980213;28;20185;-77
2022/03/01 01:15:07;;;;;;;9.83;6.00;;;0.80;99.90;;;;;;4979937;28;20186;-76
2022/03/01 01:17:33;;;;;;;11.70;6.07;;;0.80;99.90;;;;;;4996300;28;20179;-77
2022/03/01 01:19:59;;;;;;;10.53;6.50;;;0.80;99.90;;;;;;4995915;28;20691;-77
2022/03/01 01:22:40;;;;;;;10.70;6.10;;;0.90;99.90;;;;;;4996030;28;20524;-77
2022/03/01 01:25:14;;;;;;;14.97;6.30;;;0.80;99.90;;;;;;4996156;28;20210;-77
2022/03/01 01:27:42;;;;;;;7.93;5.40;;;0.80;99.90;;;;;;4980864;28;20186;-77
2022/03/01 01:30:10;;;;;;;10.20;5.80;;;0.80;99.90;;;;;;4995727;28;20203;-76
2022/03/01 01:32:36;;;;;;;9.90;6.80;;;0.80;99.90;;;;;;4963711;28;20175;-77
2022/03/01 01:35:02;;;;;;;10.20;6.50;;;0.80;99.90;;;;;;4979854;28;20214;-77
2022/03/01 01:37:28;;;;;;;11.37;6.17;;;0.80;99.90;;;;;;4963981;28;20622;-77
2022/03/01 01:39:54;;;;;;;10.40;6.33;;;0.80;99.90;;;;;;4979714;28;20604;-77
2022/03/01 01:42:20;;;;;;;11.73;6.57;;;0.70;99.90;;;;;;4995641;28;20237;-77
2022/03/01 01:44:45;;;;;;;11.80;6.23;;;0.70;99.90;;;;;;4963049;28;20720;-77
2022/03/01 01:47:11;;;;;;;10.57;6.10;;;0.70;99.90;;;;;;4979597;28;20214;-77
2022/03/01 01:49:37;;;;;;;10.33;6.27;;;0.70;99.90;;;;;;4979623;28;20677;-77
2022/03/01 01:52:03;;;;;;;9.57;6.20;;;0.70;99.90;;;;;;4962634;28;20193;-77
2022/03/01 01:54:29;;;;;;;9.93;6.10;;;0.60;99.90;;;;;;4963187;28;20185;-77
2022/03/01 01:56:55;;;;;;;11.37;6.87;;;0.60;99.90;;;;;;4963200;28;20187;-77
2022/03/01 01:59:20;;;;;;;10.30;6.23;;;0.60;99.90;;;;;;4979007;28;20206;-77
2022/03/01 02:01:46;;;;;;;10.63;6.43;;;0.60;99.90;;;;;;4979353;28;20603;-77
2022/03/01 02:04:12;;;;;;;10.40;6.13;;;0.50;99.90;;;;;;4962978;28;20256;-77
2022/03/01 02:06:50;;;;;;;12.13;6.03;;;0.50;99.90;;;;;;4963045;28;20201;-77
2022/03/01 02:09:15;;;;;;;10.13;6.20;;;0.50;99.90;;;;;;4995214;28;20197;-77
2022/03/01 02:11:41;;;;;;;10.27;6.13;;;0.50;99.90;;;;;;4963055;28;20233;-76
2022/03/01 02:14:07;;;;;;;8.60;5.63;;;0.50;99.90;;;;;;4978763;28;20190;-77
2022/03/01 02:16:33;;;;;;;10.67;6.57;;;0.60;99.90;;;;;;4963147;28;20179;-77
2022/03/01 02:18:59;;;;;;;11.10;6.10;;;0.50;99.90;;;;;;4963015;28;20260;-77
2022/03/01 02:21:24;;;;;;;10.50;6.30;;;0.50;99.90;;;;;;4962970;28;20233;-77
2022/03/01 02:23:50;;;;;;;12.60;6.33;;;0.50;99.90;;;;;;4962542;28;20675;-77
2022/03/01 02:26:15;;;;;;;10.13;6.17;;;0.40;99.90;;;;;;4962820;28;20185;-76
2022/03/01 02:28:41;;;;;;;8.60;5.60;;;0.40;99.90;;;;;;4978586;28;20198;-77
2022/03/01 02:31:07;;;;;;;11.30;6.30;;;0.40;99.90;;;;;;4978885;28;20233;-76
2022/03/01 02:33:32;;;;;;;10.47;5.97;;;0.40;99.90;;;;;;4962429;28;20183;-77
2022/03/01 02:35:58;;;;;;;11.20;6.10;;;0.40;99.90;;;;;;4962792;28;20209;-77
2022/03/01 02:38:23;;;;;;;11.03;6.10;;;0.50;99.90;;;;;;4978799;28;20203;-77
2022/03/01 02:40:49;;;;;;;12.80;6.03;;;0.30;99.90;;;;;;4962740;28;20179;-77
2022/03/01 02:43:16;;;;;;;9.97;5.90;;;0.30;99.90;;;;;;4962265;28;20182;-77
2022/03/01 02:45:41;;;;;;;9.50;5.80;;;0.30;99.90;;;;;;4978862;28;20214;-77
2022/03/01 02:48:07;;;;;;;11.93;6.40;;;0.20;99.90;;;;;;4962530;28;20183;-77
2022/03/01 02:50:33;;;;;;;9.07;5.53;;;0.10;99.90;;;;;;4978744;28;20192;-77
2022/03/01 02:52:58;;;;;;;10.97;6.27;;;0.10;99.90;;;;;;4962214;28;20639;-76
2022/03/01 02:55:24;;;;;;;11.23;6.40;;;0.10;99.90;;;;;;4978424;28;20194;-77
2022/03/01 02:57:49;;;;;;;10.10;6.27;;;0.10;99.90;;;;;;4977902;28;20183;-77
2022/03/01 03:00:15;;;;;;;9.33;5.83;;;0.20;99.90;;;;;;4978564;28;20574;-77
2022/03/01 03:02:43;;;;;;;8.80;5.53;;;0.20;99.90;;;;;;4979946;28;20186;-77
2022/03/01 03:05:09;;;;;;;9.03;5.33;;;0.20;99.90;;;;;;4982477;28;20709;-77
2022/03/01 03:07:35;;;;;;;7.30;5.80;;;0.30;99.90;;;;;;4998702;28;20258;-77
2022/03/01 03:10:01;;;;;;;10.07;6.07;;;0.20;99.90;;;;;;4966186;28;20215;-77
2022/03/01 03:12:26;;;;;;;11.40;5.97;;;0.10;99.90;;;;;;4998246;28;20241;-77
2022/03/01 03:14:52;;;;;;;10.03;5.93;;;-0.10;99.90;;;;;;4966318;28;20541;-77
2022/03/01 03:17:18;;;;;;;9.03;5.50;;;-0.10;99.90;;;;;;4982413;28;20187;-77
2022/03/01 03:19:43;;;;;;;9.20;6.00;;;-0.30;99.90;;;;;;4965900;28;20273;-77
2022/03/01 03:22:09;;;;;;;9.43;5.57;;;-0.30;99.90;;;;;;4966117;28;20190;-77
2022/03/01 03:24:34;;;;;;;12.40;5.83;;;-0.40;99.90;;;;;;4965683;28;20280;-77
2022/03/01 03:27:00;;;;;;;9.50;5.87;;;-0.50;99.90;;;;;;4981950;28;20179;-77
2022/03/01 03:29:26;;;;;;;9.87;6.27;;;-0.60;99.90;;;;;;4981875;28;20671;-77
2022/03/01 03:31:56;;;;;;;9.83;5.97;;;-0.50;99.90;;;;;;4982255;28;20274;-77
2022/03/01 03:34:22;;;;;;;9.27;5.90;;;-0.60;99.90;;;;;;4967023;28;20272;-77
2022/03/01 03:36:48;;;;;;;10.33;5.50;;;-0.50;99.90;;;;;;4998132;28;20603;-77
2022/03/01 03:39:14;;;;;;;9.73;5.70;;;-0.40;99.90;;;;;;4965509;28;20237;-76
2022/03/01 03:41:39;;;;;;;12.07;5.97;;;-0.40;99.90;;;;;;4965571;28;20237;-77
2022/03/01 03:44:06;;;;;;;9.50;5.40;;;-0.40;99.90;;;;;;4997577;28;20209;-77
2022/03/01 03:46:32;;;;;;;9.87;6.00;;;-0.40;99.90;;;;;;4997888;28;20179;-76
2022/03/01 03:48:57;;;;;;;9.37;5.77;;;-0.50;99.90;;;;;;4997897;28;20676;-77
2022/03/01 03:51:23;;;;;;;9.40;5.63;;;-0.60;99.90;;;;;;4981580;28;20175;-77
2022/03/01 03:53:49;;;;;;;9.73;5.60;;;-0.50;99.90;;;;;;4981392;28;20193;-77
2022/03/01 03:56:15;;;;;;;10.53;5.70;;;-0.50;99.90;;;;;;4981619;28;20194;-77
2022/03/01 03:58:40;;;;;;;9.40;5.50;;;-0.60;99.90;;;;;;4965471;28;20333;-77
2022/03/01 04:01:06;;;;;;;9.07;5.70;;;-0.50;99.90;;;;;;4965324;28;20183;-77
2022/03/01 04:03:32;;;;;;;11.20;5.63;;;-0.50;99.90;;;;;;4965115;28;20179;-77
2022/03/01 04:05:58;;;;;;;10.43;5.80;;;-0.50;99.90;;;;;;4997629;28;20233;-77
2022/03/01 04:08:24;;;;;;;8.23;5.70;;;-0.40;99.90;;;;;;4981151;28;20210;-77
2022/03/01 04:10:49;;;;;;;10.47;5.90;;;-0.40;99.90;;;;;;4981117;28;20187;-76
2022/03/01 04:13:15;;;;;;;10.97;5.90;;;-0.50;99.90;;;;;;4965119;28;20190;-77
2022/03/01 04:15:41;;;;;;;12.90;6.20;;;-0.70;99.90;;;;;;4980428;28;20187;-77
2022/03/01 04:18:07;;;;;;;8.93;5.60;;;-0.80;99.90;;;;;;4980898;28;20190;-77
2022/03/01 04:20:32;;;;;;;9.57;6.00;;;-0.90;99.90;;;;;;4965291;28;20240;-77
2022/03/01 04:22:58;;;;;;;10.23;5.87;;;-1.00;99.90;;;;;;4980925;28;20201;-77
2022/03/01 04:25:24;;;;;;;11.03;5.97;;;-0.90;99.90;;;;;;4964809;28;20215;-77
2022/03/01 04:27:50;;;;;;;10.37;5.90;;;-0.80;99.90;;;;;;4965107;28;20183;-77
2022/03/01 04:30:16;;;;;;;10.17;6.23;;;-0.70;99.90;;;;;;4980877;28;20203;-77
2022/03/01 04:32:43;;;;;;;9.53;5.60;;;-0.70;99.90;;;;;;4980771;28;20186;-77
2022/03/01 04:35:09;;;;;;;10.47;5.70;;;-0.70;99.90;;;;;;4980731;28;20210;-77
2022/03/01 04:37:37;;;;;;;9.10;5.23;;;-0.90;99.90;;;;;;4980864;28;20671;-77
2022/03/01 04:40:05;;;;;;;8.53;5.90;;;-0.90;99.90;;;;;;4980622;28;20214;-77
2022/03/01 04:42:31;;;;;;;10.67;5.80;;;-1.00;99.90;;;;;;4980929;28;20187;-77
2022/03/01 04:44:57;;;;;;;9.37;5.90;;;-1.10;99.90;;;;;;4980665;28;20225;-77
2022/03/01 04:47:22;;;;;;;9.13;5.60;;;-1.10;99.90;;;;;;4980829;28;20179;-77
2022/03/01 04:49:48;;;;;;;10.60;5.80;;;-1.20;99.90;;;;;;4964501;28;20202;-77
2022/03/01 04:52:13;;;;;;;8.53;5.30;;;-1.20;99.90;;;;;;4964401;28;20530;-77
2022/03/01 04:54:39;;;;;;;10.60;5.83;;;-1.20;99.90;;;;;;4964134;28;20662;-77
2022/03/01 04:57:05;;;;;;;10.07;5.80;;;-1.20;99.90;;;;;;4980610;28;20194;-77
2022/03/01 04:59:30;;;;;;;9.07;5.37;;;-1.20;99.90;;;;;;4964339;28;20199;-76
2022/03/01 05:01:56;;;;;;;8.97;5.67;;;-1.20;99.90;;;;;;4980449;28;20325;-77
2022/03/01 05:04:22;;;;;;;8.83;5.57;;;-1.20;99.90;;;;;;4979887;28;20286;-77
2022/03/01 05:06:48;;;;;;;9.17;6.03;;;-1.10;99.90;;;;;;4964203;28;20185;-77
2022/03/01 05:09:13;;;;;;;10.63;6.00;;;-1.10;99.90;;;;;;4980449;28;20206;-77
2022/03/01 05:11:39;;;;;;;10.30;5.63;;;-1.10;99.90;;;;;;4980360;28;20180;-77
2022/03/01 05:14:05;;;;;;;10.53;5.80;;;-1.00;99.90;;;;;;4980017;28;20281;-77
2022/03/01 05:16:31;;;;;;;11.53;5.90;;;-1.00;99.90;;;;;;4996264;28;20659;-77
2022/03/01 05:18:57;;;;;;;10.03;6.57;;;-0.90;99.90;;;;;;5004467;23;20219;-76
2022/03/01 05:21:22;;;;;;;9.50;5.93;;;-0.90;99.90;;;;;;4983491;28;20181;-76
2022/03/01 05:23:48;;;;;;;10.97;6.43;;;-0.90;99.90;;;;;;4983493;28;20178;-76
2022/03/01 05:26:14;;;;;;;10.00;6.30;;;-0.90;99.90;;;;;;4982109;28;20281;-76
2022/03/01 05:28:39;;;;;;;11.33;6.13;;;-0.90;99.90;;;;;;4999651;28;20265;-76
2022/03/01 05:31:05;;;;;;;11.40;5.80;;;-0.90;99.90;;;;;;4983537;28;20181;-76
2022/03/01 05:33:31;;;;;;;12.67;5.93;;;-0.90;99.90;;;;;;4983318;28;20181;-76
2022/03/01 05:35:57;;;;;;;9.63;5.53;;;-1.00;99.90;;;;;;4998922;28;20182;-76
2022/03/01 05:38:23;;;;;;;10.50;6.07;;;-0.90;99.90;;;;;;4982581;28;20269;-77
2022/03/01 05:40:49;;;;;;;8.20;5.73;;;-0.90;99.90;;;;;;4966764;28;20209;-77
2022/03/01 05:43:14;;;;;;;10.13;6.10;;;-0.90;99.90;;;;;;4999604;28;20222;-77
2022/03/01 05:45:41;;;;;;;9.13;6.27;;;-0.90;99.90;;;;;;4983337;28;20205;-77
2022/03/01 05:48:07;;;;;;;11.43;6.07;;;-0.90;99.90;;;;;;4967239;28;20180;-77
2022/03/01 05:50:33;;;;;;;9.13;5.80;;;-0.90;99.90;;;;;;4997424;28;20620;-77
2022/03/01 05:52:59;;;;;;;10.40;5.83;;;-0.80;99.90;;;;;;4966629;28;20668;-77
2022/03/01 05:55:25;;;;;;;9.53;5.60;;;-0.90;99.90;;;;;;4999141;28;20174;-77
2022/03/01 05:57:51;;;;;;;11.23;5.90;;;-0.80;99.90;;;;;;4999026;28;20184;-77
2022/03/01 06:00:19;;;;;;;10.07;5.50;;;-0.90;99.90;;;;;;4998426;28;20209;-77
2022/03/01 06:02:46;;;;;;;9.27;5.73;;;-0.90;99.90;;;;;;4965874;28;20235;-77
2022/03/01 06:05:12;;;;;;;10.30;5.97;;;-0.90;99.90;;;;;;4998188;28;20233;-76
2022/03/01 06:07:38;;;;;;;7.43;5.30;;;-0.90;99.90;;;;;;4982130;28;20179;-77
2022/03/01 06:10:05;;;;;;;9.97;5.80;;;-0.80;99.90;;;;;;4982053;28;20691;-77
2022/03/01 06:12:31;;;;;;;9.07;5.47;;;-0.80;99.90;;;;;;4965379;28;20177;-77
2022/03/01 06:14:57;;;;;;;9.07;6.00;;;-0.80;99.90;;;;;;4981613;28;20279;-77
2022/03/01 06:17:22;;;;;;;8.13;5.90;;;-0.90;99.90;;;;;;4981943;28;20181;-77
2022/03/01 06:19:48;;;;;;;8.00;5.20;;;-0.90;99.90;;;;;;4989426;28;20323;-77
2022/03/01 06:22:14;;;;;;;10.00;6.00;;;-1.00;99.90;;;;;;4998105;28;20193;-77
2022/03/01 06:24:41;;;;;;;10.10;6.23;;;-1.10;99.90;;;;;;4998501;28;20213;-77
2022/03/01 06:27:07;;;;;;;9.80;5.80;;;-1.00;99.90;;;;;;5015699;28;20173;-77
2022/03/01 06:29:35;;;;;;;8.33;5.63;;;-1.00;99.90;;;;;;5013862;28;20203;-77
2022/03/01 06:32:01;;;;;;;8.97;6.00;;;-0.90;99.90;;;;;;5013554;28;20263;-77
2022/03/01 06:34:27;;;;;;;9.37;5.77;;;-0.90;99.90;;;;;;4997429;28;20189;-78
2022/03/01 06:36:52;;;;;;;8.17;4.37;;;-1.00;99.90;;;;;;4995640;28;20186;-78
2022/03/01 06:39:18;;;;;;;9.80;5.50;;;-0.40;99.90;;;;;;4995327;28;20202;-78
2022/03/01 06:41:44;;;;;;;9.33;5.63;;;0.50;99.90;;;;;;4995379;28;20194;-77
2022/03/01 06:44:09;;;;;;;10.83;5.47;;;1.10;99.90;;;;;;4995319;28;20211;-77
2022/03/01 06:46:35;;;;;;;8.90;4.70;;;1.60;99.90;;;;;;4995179;28;20210;-76
2022/03/01 06:49:01;;;;;;;9.20;5.60;;;2.00;99.90;;;;;;4995980;28;20194;-77
2022/03/01 06:51:27;;;;;;;8.80;5.37;;;1.90;99.90;;;;;;5012687;28;20175;-77
2022/03/01 06:53:54;;;;;;;7.27;5.03;;;1.50;99.90;;;;;;4996769;28;20186;-76
2022/03/01 06:56:19;;;;;;;6.93;5.10;;;1.10;99.90;;;;;;5012974;28;20651;-77
2022/03/01 06:58:45;;;;;;;10.03;5.80;;;0.60;99.90;;;;;;5011797;28;20201;-78
2022/03/01 07:01:11;;;;;;;9.13;5.70;;;0.30;99.90;;;;;;5011869;28;20258;-78
2022/03/01 07:03:39;;;;;;;7.60;5.40;;;0.10;99.90;;;;;;5011228;28;20174;-77
2022/03/01 07:06:05;;;;;;;8.50;5.07;;;-0.10;99.90;;;;;;5011910;28;20175;-76
2022/03/01 07:08:31;;;;;;;7.43;5.40;;;-0.30;99.90;;;;;;5012833;28;20214;-76
2022/03/01 07:10:56;;;;;;;8.50;4.93;;;-0.30;99.90;;;;;;4997049;28;20584;-76
2022/03/01 07:13:22;;;;;;;8.07;4.73;;;-0.40;99.90;;;;;;4996696;28;20178;-76
2022/03/01 07:15:48;;;;;;;9.20;5.50;;;-0.40;99.90;;;;;;4996764;28;20606;-76
2022/03/01 07:18:13;;;;;;;8.60;5.30;;;-0.30;99.90;;;;;;4997255;28;20183;-76
2022/03/01 07:20:39;;;;;;;7.97;5.37;;;-0.20;99.90;;;;;;4996423;28;20221;-76
2022/03/01 07:23:05;;;;;;;9.37;5.43;;;-0.10;99.90;;;;;;4995930;28;20183;-76
2022/03/01 07:25:31;;;;;;;7.70;5.10;;;0.00;99.90;;;;;;5011078;28;20584;-76
2022/03/01 07:27:56;;;;;;;7.10;4.80;;;0.00;99.90;;;;;;5012043;28;20653;-77
2022/03/01 07:30:24;;;;;;;8.90;5.90;;;0.00;99.90;;;;;;4995798;28;20195;-78
2022/03/01 07:32:52;;;;;;;8.80;5.50;;;0.00;99.90;;;;;;4996685;28;20175;-78
2022/03/01 07:35:21;;;;;;;8.07;5.70;;;0.00;99.90;;;;;;5013196;28;20187;-78
2022/03/01 07:37:47;;;;;;;8.90;5.63;;;0.10;99.90;;;;;;5012651;28;20186;-78
2022/03/01 07:40:14;;;;;;;9.63;5.63;;;0.10;99.90;;;;;;4997127;28;20202;-78
2022/03/01 07:42:41;;;;;;;10.80;5.70;;;0.20;99.90;;;;;;4997115;28;20261;-78
2022/03/01 07:45:07;;;;;;;8.07;4.80;;;0.20;99.90;;;;;;5013352;28;20249;-78
2022/03/01 07:47:33;;;;;;;6.93;4.53;;;0.20;99.90;;;;;;4996957;28;20623;-78
2022/03/01 07:49:59;;;;;;;7.93;5.10;;;0.30;99.90;;;;;;4998403;28;20223;-78
2022/03/01 07:52:25;;;;;;;6.87;4.20;;;0.50;99.90;;;;;;5000181;28;20175;-78
2022/03/01 07:54:50;;;;;;;7.37;4.43;;;0.50;99.90;;;;;;5000523;28;20194;-78
2022/03/01 07:57:17;;;;;;;8.40;4.37;;;0.60;99.90;;;;;;5001065;28;20182;-78
2022/03/01 07:59:43;;;;;;;6.87;4.00;;;0.60;99.90;;;;;;5000263;28;20260;-78
2022/03/01 08:02:09;;;;;;;8.93;5.00;;;0.70;99.90;;;;;;5016818;28;20187;-78
2022/03/01 08:04:35;;;;;;;6.60;4.40;;;0.80;99.90;;;;;;5016435;28;20779;-78
2022/03/01 08:07:00;;;;;;;7.67;4.80;;;0.80;99.90;;;;;;5000335;28;20187;-78
2022/03/01 08:09:26;;;;;;;7.30;4.33;;;0.90;99.90;;;;;;5000181;28;20202;-78
2022/03/01 08:11:52;;;;;;;7.33;4.53;;;1.00;99.90;;;;;;5000006;28;20175;-78
2022/03/01 08:14:17;;;;;;;7.17;4.27;;;1.10;99.90;;;;;;4999674;28;20184;-78
2022/03/01 08:16:43;;;;;;;6.93;4.37;;;1.20;99.90;;;;;;4999795;28;20212;-78
2022/03/01 08:19:08;;;;;;;8.00;4.67;;;1.30;99.90;;;;;;4999528;28;20226;-78
2022/03/01 08:21:34;;;;;;;7.87;4.47;;;1.30;99.90;;;;;;4999334;28;20191;-78
2022/03/01 08:24:00;;;;;;;7.13;4.80;;;1.40;99.90;;;;;;5015349;28;20206;-78
2022/03/01 08:26:26;;;;;;;7.00;4.20;;;1.50;99.90;;;;;;5016498;28;20175;-78
2022/03/01 08:28:52;;;;;;;7.47;4.60;;;1.50;99.90;;;;;;5015344;28;20223;-78
2022/03/01 08:31:17;;;;;;;7.50;4.50;;;1.60;99.90;;;;;;4998901;28;20183;-78
2022/03/01 08:33:43;;;;;;;8.33;4.30;;;1.70;99.90;;;;;;4998592;28;20186;-78
2022/03/01 08:36:11;;;;;;;8.00;4.43;;;1.80;99.90;;;;;;5015849;28;20186;-78
2022/03/01 08:38:37;;;;;;;6.43;4.30;;;1.90;99.90;;;;;;4999164;28;20185;-78
2022/03/01 08:41:03;;;;;;;5.53;4.27;;;2.00;99.90;;;;;;5000015;28;20183;-78
2022/03/01 08:43:29;;;;;;;6.60;4.57;;;2.10;99.90;;;;;;5016406;28;20672;-78
2022/03/01 08:45:54;;;;;;;8.77;4.80;;;2.20;99.90;;;;;;5000192;28;20300;-78
2022/03/01 08:48:20;;;;;;;6.97;4.63;;;2.40;99.90;;;;;;5000482;28;20185;-78
2022/03/01 08:50:46;;;;;;;6.27;4.10;;;2.40;99.90;;;;;;5000418;28;20804;-79
2022/03/01 08:53:12;;;;;;;6.63;4.40;;;2.40;99.90;;;;;;4999793;28;20232;-79
2022/03/01 08:55:38;;;;;;;7.97;4.73;;;2.50;99.90;;;;;;4998650;28;20241;-79
2022/03/01 08:58:05;;;;;;;6.37;4.70;;;2.60;99.90;;;;;;4999452;28;20188;-79
2022/03/01 09:00:31;;;;;;;6.50;4.13;;;2.60;99.90;;;;;;4999329;28;20207;-78
2022/03/01 09:02:57;;;;;;;7.53;4.40;;;2.50;99.90;;;;;;5015276;28;20233;-79
2022/03/01 09:05:23;;;;;;;5.70;3.90;;;2.60;99.90;;;;;;5016302;28;20207;-79
2022/03/01 09:07:48;;;;;;;5.70;3.87;;;2.70;99.90;;;;;;4998658;28;20195;-79
2022/03/01 09:10:14;;;;;;;5.33;4.17;;;2.70;99.90;;;;;;4998339;28;20200;-79
2022/03/01 09:12:40;;;;;;;7.70;4.20;;;2.70;99.90;;;;;;4997584;28;20245;-79
2022/03/01 09:15:06;;;;;;;7.27;4.13;;;2.90;99.90;;;;;;4996712;28;20187;-79
2022/03/01 09:17:31;;;;;;;7.03;4.10;;;3.00;99.90;;;;;;5014780;28;20253;-79
2022/03/01 09:19:57;;;;;;;6.87;3.53;;;2.90;99.90;;;;;;4996683;28;20358;-79
2022/03/01 09:22:23;;;;;;;5.80;4.00;;;2.90;99.90;;;;;;5013392;28;20185;-79
2022/03/01 09:24:48;;;;;;;6.93;4.00;;;3.10;99.90;;;;;;4996823;28;20331;-79
2022/03/01 09:27:14;;;;;;;7.40;4.30;;;3.10;99.90;;;;;;4997097;28;20554;-79
2022/03/01 09:29:40;;;;;;;7.03;3.90;;;3.30;99.90;;;;;;5012912;28;20661;-79
2022/03/01 09:32:06;;;;;;;7.13;4.20;;;3.30;99.90;;;;;;4996797;28;20180;-79
2022/03/01 09:34:32;;;;;;;6.17;4.07;;;3.40;99.40;;;;;;4996857;28;20183;-78
2022/03/01 09:36:57;;;;;;;6.63;4.00;;;3.50;99.90;;;;;;4997286;28;20184;-79
2022/03/01 09:39:23;;;;;;;5.27;3.57;;;3.50;99.10;;;;;;5013101;28;20276;-78
2022/03/01 09:41:50;;;;;;;6.00;3.70;;;3.60;98.00;;;;;;4996703;28;20260;-78
2022/03/01 09:44:17;;;;;;;7.00;3.73;;;3.70;96.60;;;;;;4996321;28;20224;-78
2022/03/01 09:46:43;;;;;;;6.90;4.10;;;3.90;97.30;;;;;;5012532;28;20212;-78
2022/03/01 09:49:09;;;;;;;6.60;4.20;;;4.20;97.20;;;;;;5012470;28;20197;-79
2022/03/01 09:51:38;;;;;;;5.17;4.00;;;4.40;96.90;;;;;;5013785;28;20236;-78
2022/03/01 09:54:04;;;;;;;5.60;3.73;;;4.50;95.60;;;;;;4996245;28;20236;-78
2022/03/01 09:56:29;;;;;;;6.73;4.30;;;4.60;98.20;;;;;;5012404;28;20663;-78
2022/03/01 09:58:57;;;;;;;5.67;4.10;;;4.70;94.00;;;;;;5012553;28;20209;-78
2022/03/01 10:01:24;;;;;;;6.70;4.10;;;4.80;94.40;;;;;;4996824;28;20189;-77
2022/03/01 10:03:51;;;;;;;5.83;3.83;;;5.10;97.00;;;;;;4996164;28;20336;-78
2022/03/01 10:06:22;;;;;;;5.40;3.70;;;5.30;97.90;;;;;;5012633;28;20182;-78
2022/03/01 10:08:54;;;;;;;6.33;3.83;;;5.60;93.60;;;;;;5013642;28;20197;-78
2022/03/01 10:11:21;;;;;;;7.07;4.10;;;5.70;92.70;;;;;;4996045;28;20183;-77
2022/03/01 10:13:47;;;;;;;5.30;3.53;;;5.70;93.90;;;;;;5011799;28;20171;-77
2022/03/01 10:16:15;;;;;;;5.30;3.53;;;5.50;90.70;;;;;;5012199;28;20186;-77
2022/03/01 10:18:42;;;;;;;5.53;3.80;;;5.70;91.60;;;;;;5011591;28;20179;-77
2022/03/01 10:21:13;;;;;;;6.83;4.13;;;5.70;90.90;;;;;;4995468;28;20178;-76
2022/03/01 10:23:45;;;;;;;5.97;4.00;;;5.90;91.00;;;;;;4979611;28;20182;-77
2022/03/01 10:26:13;;;;;;;7.17;3.67;;;5.80;90.20;;;;;;4980300;28;20186;-77
2022/03/01 10:28:40;;;;;;;6.40;4.27;;;5.90;90.50;;;;;;4979312;28;20179;-77
2022/03/01 10:31:17;;;;;;;4.63;3.60;;;6.00;90.50;;;;;;4978986;28;20183;-77
2022/03/01 10:34:07;;;;;;;4.83;3.47;;;6.00;87.40;;;;;;4995166;28;20167;-76
2022/03/01 10:36:41;;;;;;;5.10;3.83;;;6.50;93.10;;;;;;4995509;28;20176;-76
2022/03/01 10:39:12;;;;;;;5.10;3.70;;;6.80;90.40;;;;;;4995416;28;20196;-76
2022/03/01 10:41:46;;;;;;;5.17;4.47;;;6.90;91.60;;;;;;4979320;28;20174;-77
2022/03/01 10:44:15;;;;;;;5.63;3.73;;;6.70;84.40;;;;;;4978954;28;20210;-76
2022/03/01 10:46:43;;;;;;;5.10;3.70;;;6.70;87.00;;;;;;4995033;28;20548;-77
2022/03/01 10:49:16;;;;;;;5.90;3.87;;;6.90;90.10;;;;;;4979138;28;20264;-77
2022/03/01 10:51:56;;;;;;;5.30;3.70;;;7.10;82.80;;;;;;5012661;28;20190;-76
2022/03/01 10:54:29;;;;;;;6.90;4.17;;;6.80;82.00;;;;;;4979452;28;20180;-77
2022/03/01 10:56:56;;;;;;;5.27;3.90;;;6.60;83.60;;;;;;4979114;28;20180;-77
2022/03/01 10:59:27;;;;;;;7.13;4.30;;;7.10;84.40;;;;;;4994760;28;20204;-79
2022/03/01 11:01:54;;;;;;;5.90;4.23;;;7.20;82.60;;;;;;4978579;28;20537;-78
2022/03/01 11:04:25;;;;;;;5.93;4.00;;;7.50;86.40;;;;;;4994855;28;20204;-79
2022/03/01 11:06:53;;;;;;;5.93;4.20;;;7.70;86.50;;;;;;4979377;28;20184;-79
2022/03/01 11:09:21;;;;;;;6.23;4.13;;;7.90;85.20;;;;;;5012264;28;20194;-78
2022/03/01 11:11:48;;;;;;;7.03;4.27;;;7.70;83.70;;;;;;4995908;28;20546;-77
2022/03/01 11:14:18;;;;;;;7.23;4.33;;;8.10;82.80;;;;;;4978549;28;20186;-76
2022/03/01 11:17:07;;;;;;;8.27;4.33;;;8.20;81.20;;;;;;4978428;28;20227;-76
2022/03/01 11:20:11;;;;;;;6.47;4.20;;;8.40;77.70;;;;;;5013338;23;20251;-78
2022/03/01 11:22:59;;;;;;;6.50;4.20;;;8.80;78.90;;;;;;4972033;28;20243;-76
2022/03/01 11:25:27;;;;;;;6.40;4.17;;;8.80;74.80;;;;;;4977258;28;20204;-77
2022/03/01 11:28:07;;;;;;;7.10;4.37;;;8.50;72.80;;;;;;4975560;28;20180;-77
2022/03/01 11:30:36;;;;;;;7.07;4.83;;;8.50;71.10;;;;;;4960307;28;20212;-77
2022/03/01 11:33:02;;;;;;;5.77;4.03;;;8.80;72.90;;;;;;4943819;28;20184;-76
2022/03/01 11:35:34;;;;;;;6.40;4.20;;;9.00;74.80;;;;;;4975617;28;20181;-77
2022/03/01 11:38:12;;;;;;;12.43;6.83;;;9.10;71.60;;;;;;4975433;28;20182;-77
2022/03/01 11:40:38;;;;;;;13.00;7.23;;;8.90;69.30;;;;;;4975253;28;20200;-77
2022/03/01 11:43:16;;;;;;;7.83;4.70;;;8.30;69.90;;;;;;4976288;28;20185;-77
2022/03/01 11:45:53;;;;;;;5.77;3.93;;;8.00;70.70;;;;;;4944018;28;20208;-77
2022/03/01 11:48:21;;;;;;;8.20;4.10;;;8.10;84.10;;;;;;4959798;28;20181;-77
2022/03/01 11:51:04;;;;;;;5.87;4.47;;;10.50;99.90;;;;;;4975082;28;20556;-77
2022/03/01 11:53:43;;;;;;;5.47;4.07;;;11.20;93.60;;;;;;4959093;28;20695;-77
2022/03/01 11:56:09;;;;;;;7.03;4.63;;;11.30;90.90;;;;;;4975115;28;20715;-76
2022/03/01 11:58:37;;;;;;;6.87;4.93;;;10.90;64.00;;;;;;4974930;28;20177;-76
2022/03/01 12:01:09;;;;;;;8.77;5.20;;;10.50;59.40;;;;;;4974958;28;20207;-76
2022/03/01 12:03:39;;;;;;;5.60;4.10;;;10.30;63.10;;;;;;4974730;28;20210;-76
2022/03/01 12:06:06;;;;;;;5.30;4.07;;;10.30;61.10;;;;;;4974953;28;20204;-76
2022/03/01 12:08:32;;;;;;;6.80;4.50;;;10.20;58.40;;;;;;4959154;28;20247;-76
2022/03/01 12:11:02;;;;;;;7.37;4.30;;;10.10;66.00;;;;;;4974744;28;20204;-76
2022/03/01 12:13:42;;;;;;;6.17;4.60;;;10.30;62.60;;;;;;4975735;28;20172;-76
2022/03/01 12:16:11;;;;;;;5.90;4.30;;;10.20;59.00;;;;;;4974713;28;20239;-76
2022/03/01 12:18:42;;;;;;;6.47;4.03;;;10.10;58.20;;;;;;4974823;28;20181;-76
2022/03/01 12:21:14;;;;;;;5.20;3.90;;;10.50;59.50;;;;;;4974638;28;20270;-77
2022/03/01 12:23:42;;;;;;;5.40;3.93;;;10.10;54.70;;;;;;4958508;28;20190;-77
2022/03/01 12:26:10;;;;;;;4.50;3.73;;;10.40;56.20;;;;;;4974673;28;20204;-77
2022/03/01 12:28:45;;;;;;;6.00;3.83;;;10.50;53.90;;;;;;4958521;28;20204;-76
2022/03/01 12:31:22;;;;;;;6.10;4.20;;;10.60;54.90;;;;;;4974601;28;20551;-76
2022/03/01 12:33:52;;;;;;;5.07;3.60;;;10.80;53.50;;;;;;4975580;28;20297;-77
2022/03/01 12:36:27;;;;;;;5.20;4.10;;;11.00;54.80;;;;;;4973897;28;20176;-77
2022/03/01 12:39:01;;;;;;;6.27;3.97;;;10.70;52.40;;;;;;4958174;28;20203;-77
2022/03/01 12:41:27;;;;;;;4.73;3.70;;;11.00;54.60;;;;;;4975605;28;20172;-77
2022/03/01 12:44:04;;;;;;;5.53;3.77;;;11.20;53.60;;;;;;4958109;28;20591;-77
2022/03/01 12:46:30;;;;;;;5.07;3.30;;;11.80;56.20;;;;;;4974186;28;20194;-77
2022/03/01 12:48:57;;;;;;;6.03;4.30;;;12.00;49.30;;;;;;4974160;28;20184;-77
2022/03/01 12:51:24;;;;;;;7.80;5.17;;;11.90;49.40;;;;;;4974099;28;20172;-76